Time;durP1;ratioP1;P1;durP2;ratioP2;P2;SDS_P1;SDS_P2;PMS_P1;PMS_P2;Temp;Humidity;BMP_temperature;BMP_pressure;BME280_temperature;BME280_humidity;BME280_pressure;Samples;Min_cycle;Max_cycle;Signal;HPM_P1;HPM_P2
2023/01/28 00:00:43;;;;;;;15.57;10.30;;;;;20.20;101676.00;;;;2071252;28;20214;-53
2023/01/28 00:01:44;;;;;;;16.07;11.10;;;;;20.10;101676.00;;;;2071103;28;20244;-53
2023/01/28 00:02:46;;;;;;;13.60;9.93;;;;;20.20;101668.00;;;;2070276;28;20210;-52
2023/01/28 00:03:50;;;;;;;15.60;10.93;;;;;20.20;101668.00;;;;2070133;28;20277;-54
2023/01/28 00:04:51;;;;;;;13.15;10.80;;;;;20.20;101668.00;;;;2071153;28;20214;-53
2023/01/28 00:05:53;;;;;;;12.60;10.50;;;;;20.20;101668.00;;;;2071209;28;20301;-52
2023/01/28 00:06:53;;;;;;;13.07;10.18;;;;;20.10;101656.00;;;;2070892;28;20214;-54
2023/01/28 00:07:53;;;;;;;12.03;9.90;;;;;20.20;101665.00;;;;2070183;28;20706;-53
2023/01/28 00:08:54;;;;;;;12.73;10.27;;;;;20.10;101656.00;;;;2070632;28;20698;-53
2023/01/28 00:09:55;;;;;;;9.50;8.50;;;;;20.10;101666.00;;;;2070455;28;20218;-52
2023/01/28 00:10:58;;;;;;;11.20;9.07;;;;;20.10;101651.00;;;;2071137;28;20221;-54
2023/01/28 00:11:58;;;;;;;10.23;8.98;;;;;20.10;101661.00;;;;2071143;28;20319;-52
2023/01/28 00:12:59;;;;;;;10.67;8.90;;;;;20.10;101658.00;;;;2071133;28;20260;-54
2023/01/28 00:13:59;;;;;;;10.60;9.07;;;;;20.10;101661.00;;;;2071161;28;20245;-53
2023/01/28 00:14:59;;;;;;;10.27;8.70;;;;;20.10;101665.00;;;;2070934;28;20245;-53
2023/01/28 00:16:01;;;;;;;10.70;8.53;;;;;20.10;101661.00;;;;2071126;28;20276;-53
2023/01/28 00:17:04;;;;;;;10.75;8.48;;;;;20.10;101662.00;;;;2070915;28;20219;-52
2023/01/28 00:18:04;;;;;;;10.35;8.40;;;;;20.10;101657.00;;;;2069921;28;20305;-53
2023/01/28 00:19:05;;;;;;;8.87;7.93;;;;;20.10;101660.00;;;;2070720;28;20210;-53
2023/01/28 00:20:05;;;;;;;9.97;8.50;;;;;20.10;101665.00;;;;2070507;28;20250;-53
2023/01/28 00:21:10;;;;;;;10.63;9.00;;;;;20.10;101662.00;;;;2070695;28;20234;-54
2023/01/28 00:22:11;;;;;;;11.45;8.13;;;;;20.00;101667.00;;;;2078168;28;20304;-54
2023/01/28 00:23:11;;;;;;;8.53;7.63;;;;;20.00;101664.00;;;;2079010;28;20214;-54
2023/01/28 00:24:11;;;;;;;9.37;8.37;;;;;20.10;101663.00;;;;2079117;28;20233;-53
2023/01/28 00:25:12;;;;;;;9.30;8.30;;;;;20.00;101660.00;;;;2078854;28;20208;-54
2023/01/28 00:26:13;;;;;;;8.50;7.70;;;;;20.00;101664.00;;;;2078042;28;20220;-53
2023/01/28 00:27:13;;;;;;;8.55;7.60;;;;;20.00;101670.00;;;;2079102;28;20232;-52
2023/01/28 00:28:14;;;;;;;9.67;7.90;;;;;20.00;101667.00;;;;2078201;28;20698;-53
2023/01/28 00:29:14;;;;;;;8.90;7.90;;;;;20.10;101679.00;;;;2078872;28;20245;-53
2023/01/28 00:30:14;;;;;;;7.70;6.87;;;;;20.10;101666.00;;;;2079118;28;20772;-53
2023/01/28 00:31:16;;;;;;;9.10;7.80;;;;;20.00;101668.00;;;;2078856;28;20675;-54
2023/01/28 00:32:17;;;;;;;8.07;7.28;;;;;20.00;101669.00;;;;2078958;28;20213;-52
2023/01/28 00:33:17;;;;;;;10.70;7.03;;;;;20.00;101675.00;;;;2081910;28;20217;-52
2023/01/28 00:34:17;;;;;;;8.60;7.37;;;;;20.00;101670.00;;;;2080489;28;20221;-52
2023/01/28 00:35:17;;;;;;;9.23;7.80;;;;;19.90;101668.00;;;;2080396;28;20209;-53
2023/01/28 00:36:18;;;;;;;7.40;6.70;;;;;20.00;101670.00;;;;2079077;28;20233;-54
2023/01/28 00:37:19;;;;;;;9.43;7.23;;;;;20.00;101672.00;;;;2078888;28;20213;-52
2023/01/28 00:38:19;;;;;;;8.20;6.47;;;;;20.00;101682.00;;;;2078033;28;20475;-51
2023/01/28 00:39:19;;;;;;;7.40;6.60;;;;;19.90;101673.00;;;;2078961;28;20209;-51
2023/01/28 00:40:20;;;;;;;8.73;7.83;;;;;20.00;101680.00;;;;2078732;28;20272;-51
2023/01/28 00:41:21;;;;;;;9.13;6.73;;;;;20.00;101677.00;;;;2079006;28;20217;-51
2023/01/28 00:42:21;;;;;;;7.60;6.78;;;;;20.00;101677.00;;;;2078726;28;20221;-51
2023/01/28 00:43:22;;;;;;;7.70;6.50;;;;;20.00;101673.00;;;;2078940;28;20981;-51
2023/01/28 00:44:22;;;;;;;7.17;6.47;;;;;19.90;101665.00;;;;2078909;28;20959;-52
2023/01/28 00:45:22;;;;;;;7.30;6.20;;;;;19.90;101671.00;;;;2079045;28;20783;-51
2023/01/28 00:46:25;;;;;;;6.60;5.90;;;;;20.00;101635.00;;;;2078602;28;20237;-51
2023/01/28 00:47:25;;;;;;;7.75;6.95;;;;;19.90;101672.00;;;;2078899;28;20213;-52
2023/01/28 00:48:25;;;;;;;8.30;6.57;;;;;19.90;101672.00;;;;2077933;28;20241;-51
2023/01/28 00:49:26;;;;;;;6.50;5.80;;;;;19.90;101666.00;;;;2084594;28;20209;-51
2023/01/28 00:50:26;;;;;;;6.80;6.10;;;;;19.90;101670.00;;;;2086000;28;20263;-51
2023/01/28 00:51:26;;;;;;;7.47;6.20;;;;;19.90;101673.00;;;;2087193;28;20279;-51
2023/01/28 00:52:27;;;;;;;7.80;6.90;;;;;19.90;101676.00;;;;2087042;28;20211;-52
2023/01/28 00:53:27;;;;;;;7.00;6.10;;;;;19.90;101672.00;;;;2087044;28;20213;-51
2023/01/28 00:54:28;;;;;;;6.80;6.13;;;;;19.90;101674.00;;;;2078707;28;20490;-51
2023/01/28 00:55:28;;;;;;;7.40;6.60;;;;;19.90;101677.00;;;;2079014;28;20213;-51
2023/01/28 00:56:29;;;;;;;6.27;5.60;;;;;19.90;101673.00;;;;2078977;28;20728;-51
2023/01/28 00:57:29;;;;;;;6.70;6.00;;;;;19.90;101669.00;;;;2079060;28;20216;-51
2023/01/28 00:58:29;;;;;;;7.20;6.40;;;;;19.90;101671.00;;;;2077668;28;20206;-52
2023/01/28 00:59:30;;;;;;;6.13;5.53;;;;;19.90;101669.00;;;;2078848;28;20224;-52
2023/01/28 01:00:30;;;;;;;7.20;6.50;;;;;19.90;101670.00;;;;2078339;28;20213;-51
2023/01/28 01:01:30;;;;;;;7.10;6.40;;;;;19.80;101670.00;;;;2078545;28;20236;-51
2023/01/28 01:02:31;;;;;;;7.13;5.97;;;;;19.80;101670.00;;;;2078840;28;20306;-51
2023/01/28 01:03:31;;;;;;;7.00;6.30;;;;;19.80;101679.00;;;;2078935;28;20214;-51
2023/01/28 01:04:34;;;;;;;6.27;5.37;;;;;19.80;101675.00;;;;2078402;28;20576;-51
2023/01/28 01:05:34;;;;;;;7.40;6.70;;;;;19.80;101675.00;;;;2078971;28;20217;-51
2023/01/28 01:06:36;;;;;;;7.73;6.93;;;;;19.80;101669.00;;;;2078924;28;20694;-51
2023/01/28 01:07:42;;;;;;;7.05;6.35;;;;;19.80;101671.00;;;;2078881;28;20221;-51
2023/01/28 01:08:48;;;;;;;6.60;6.00;;;;;19.80;101672.00;;;;2077333;28;20239;-51
2023/01/28 01:09:49;;;;;;;6.82;6.13;;;;;19.80;101672.00;;;;2068826;28;20733;-51
2023/01/28 01:10:49;;;;;;;6.77;6.17;;;;;19.80;101679.00;;;;2070233;28;20234;-51
2023/01/28 01:11:49;;;;;;;7.37;6.67;;;;;19.80;101674.00;;;;2064574;28;20341;-51
2023/01/28 01:12:50;;;;;;;6.97;6.27;;;;;19.80;101674.00;;;;2070827;28;20210;-51
2023/01/28 01:13:53;;;;;;;7.07;6.47;;;;;19.80;101667.00;;;;2070666;28;20220;-52
2023/01/28 01:14:54;;;;;;;6.85;6.15;;;;;19.80;101670.00;;;;2087371;28;20201;-51
2023/01/28 01:16:08;;;;;;;7.45;6.72;;;;;19.80;101670.00;;;;2087056;28;20216;-52
2023/01/28 01:17:09;;;;;;;6.95;6.25;;;;;19.70;101681.00;;;;2075563;28;20220;-51
2023/01/28 01:18:09;;;;;;;6.83;6.23;;;;;19.80;101664.00;;;;2077873;28;20218;-51
2023/01/28 01:19:09;;;;;;;7.27;6.57;;;;;19.80;101675.00;;;;2077513;28;20284;-51
2023/01/28 01:20:13;;;;;;;6.70;6.03;;;;;19.70;101671.00;;;;2078000;28;20214;-51
2023/01/28 01:21:14;;;;;;;7.07;5.97;;;;;19.70;101674.00;;;;2094349;28;20204;-52
2023/01/28 01:22:15;;;;;;;7.00;6.30;;;;;19.70;101670.00;;;;2093693;28;20670;-51
2023/01/28 01:23:15;;;;;;;7.13;6.07;;;;;19.70;101667.00;;;;2078781;28;20229;-51
2023/01/28 01:24:15;;;;;;;6.50;5.90;;;;;19.70;101660.00;;;;2078679;28;20240;-51
2023/01/28 01:25:16;;;;;;;6.77;6.13;;;;;19.70;101668.00;;;;2078314;28;20201;-52
2023/01/28 01:26:16;;;;;;;6.27;5.67;;;;;19.70;101671.00;;;;2078451;28;20267;-52
2023/01/28 01:27:16;;;;;;;6.67;6.07;;;;;19.70;101667.00;;;;2078824;28;20240;-52
2023/01/28 01:28:17;;;;;;;5.60;5.20;;;;;19.70;101663.00;;;;2077814;28;20221;-51
2023/01/28 01:29:17;;;;;;;6.07;5.43;;;;;19.70;101664.00;;;;2078737;28;20232;-51
2023/01/28 01:30:18;;;;;;;6.30;5.70;;;;;19.70;101663.00;;;;2078237;28;20754;-52
2023/01/28 01:31:19;;;;;;;6.37;5.77;;;;;19.70;101671.00;;;;2078433;28;20623;-52
2023/01/28 01:32:21;;;;;;;6.50;5.70;;;;;19.70;101669.00;;;;2078704;28;20228;-52
2023/01/28 01:33:21;;;;;;;6.43;5.82;;;;;19.70;101669.00;;;;2077813;28;20541;-53
2023/01/28 01:34:21;;;;;;;5.97;5.37;;;;;19.70;101669.00;;;;2074212;28;20232;-51
2023/01/28 01:35:22;;;;;;;6.60;6.00;;;;;19.70;101674.00;;;;2070440;28;20877;-52
2023/01/28 01:36:22;;;;;;;8.00;5.90;;;;;19.70;101672.00;;;;2086234;28;20216;-52
2023/01/28 01:37:22;;;;;;;6.67;6.00;;;;;19.70;101674.00;;;;2084823;28;20217;-51
2023/01/28 01:38:23;;;;;;;6.30;5.70;;;;;19.70;101673.00;;;;2068110;28;20218;-52
2023/01/28 01:39:23;;;;;;;6.23;5.70;;;;;19.70;101667.00;;;;2070057;28;20236;-51
2023/01/28 01:40:23;;;;;;;6.83;6.23;;;;;19.70;101674.00;;;;2069776;28;20218;-51
2023/01/28 01:41:28;;;;;;;6.37;5.80;;;;;19.70;101682.00;;;;2073126;28;20228;-51
2023/01/28 01:42:30;;;;;;;7.45;6.75;;;;;19.70;101674.00;;;;2077634;28;20304;-52
2023/01/28 01:43:51;;;;;;;6.40;5.80;;;;;19.70;101678.00;;;;2078283;28;20229;-51
2023/01/28 01:45:12;;;;;;;5.85;5.45;;;;;19.70;101684.00;;;;2077728;28;20213;-51
2023/01/28 01:46:13;;;;;;;5.75;5.28;;;;;19.70;101676.00;;;;2093806;28;20684;-52
2023/01/28 01:47:13;;;;;;;6.57;6.00;;;;;19.70;101672.00;;;;2076519;28;20304;-51
2023/01/28 01:48:19;;;;;;;5.90;5.43;;;;;19.60;101681.00;;;;2076641;28;20217;-51
2023/01/28 01:49:24;;;;;;;5.72;5.22;;;;;19.60;101681.00;;;;2089302;28;20241;-51
2023/01/28 01:50:25;;;;;;;6.03;5.53;;;;;19.60;101682.00;;;;2078032;28;20213;-52
2023/01/28 01:51:27;;;;;;;6.50;5.90;;;;;19.60;101681.00;;;;2071753;28;20214;-52
2023/01/28 01:52:30;;;;;;;6.22;5.72;;;;;19.60;101680.00;;;;2078547;28;20214;-51
2023/01/28 01:53:31;;;;;;;5.95;5.40;;;;;19.60;101684.00;;;;2086412;28;20216;-51
2023/01/28 01:54:31;;;;;;;5.93;5.43;;;;;19.60;101685.00;;;;2085719;28;20208;-52
2023/01/28 01:55:32;;;;;;;5.73;5.20;;;;;19.60;101682.00;;;;2077913;28;20298;-51
2023/01/28 01:56:36;;;;;;;6.30;5.70;;;;;19.60;101683.00;;;;2086027;28;20220;-51
2023/01/28 01:57:36;;;;;;;5.85;5.35;;;;;19.60;101688.00;;;;2085431;28;20228;-51
2023/01/28 01:58:38;;;;;;;5.33;4.90;;;;;19.60;101696.00;;;;2078517;28;20219;-51
2023/01/28 01:59:38;;;;;;;5.80;5.20;;;;;19.60;101699.00;;;;2077572;28;21219;-51
2023/01/28 02:00:39;;;;;;;6.07;5.57;;;;;19.60;101691.00;;;;2072728;28;20214;-51
2023/01/28 02:01:39;;;;;;;5.43;5.03;;;;;19.60;101683.00;;;;2085690;28;20217;-51
2023/01/28 02:02:45;;;;;;;5.80;4.83;;;;;19.60;101689.00;;;;2085351;28;21007;-52
2023/01/28 02:04:19;;;;;;;5.30;4.90;;;;;19.60;101686.00;;;;2068904;28;20325;-51
2023/01/28 02:05:20;;;;;;;5.70;5.20;;;;;19.60;101690.00;;;;2085980;28;20215;-51
2023/01/28 02:06:21;;;;;;;5.40;5.00;;;;;19.60;101688.00;;;;2082270;28;20209;-51
2023/01/28 02:07:21;;;;;;;6.00;5.50;;;;;19.60;101695.00;;;;2070189;28;21043;-51
2023/01/28 02:08:22;;;;;;;5.53;5.00;;;;;19.50;101697.00;;;;2068790;28;20297;-52
2023/01/28 02:09:26;;;;;;;5.13;4.73;;;;;19.60;101694.00;;;;2069888;28;20226;-51
2023/01/28 02:10:26;;;;;;;5.65;5.15;;;;;19.50;101700.00;;;;2073589;28;20213;-51
2023/01/28 02:11:29;;;;;;;5.80;5.30;;;;;19.50;101695.00;;;;2093091;28;20752;-53
2023/01/28 02:12:33;;;;;;;6.05;5.45;;;;;19.50;101697.00;;;;2084557;28;20641;-51
2023/01/28 02:13:38;;;;;;;6.63;6.03;;;;;19.50;101697.00;;;;2085729;28;20236;-51
2023/01/28 02:14:43;;;;;;;5.78;5.28;;;;;19.40;101698.00;;;;2084896;28;20220;-52
2023/01/28 02:15:43;;;;;;;5.50;5.10;;;;;19.50;101689.00;;;;2080326;28;20249;-52
2023/01/28 02:16:44;;;;;;;6.23;5.73;;;;;19.50;101703.00;;;;2077131;28;20217;-51
2023/01/28 02:17:44;;;;;;;6.00;5.50;;;;;19.50;101691.00;;;;2068505;28;20734;-52
2023/01/28 02:18:44;;;;;;;5.87;5.37;;;;;19.50;101694.00;;;;2075910;28;20756;-51
2023/01/28 02:19:55;;;;;;;5.60;5.10;;;;;19.60;101691.00;;;;2077003;28;20223;-51
2023/01/28 02:21:16;;;;;;;6.32;5.72;;;;;19.50;101695.00;;;;2068379;28;20214;-51
2023/01/28 02:22:26;;;;;;;5.90;5.40;;;;;19.50;101691.00;;;;2076254;28;20240;-51
2023/01/28 02:23:47;;;;;;;5.63;5.13;;;;;19.50;101698.00;;;;2093457;28;20261;-52
2023/01/28 02:25:15;;;;;;;7.93;6.22;;;;;19.50;101702.00;;;;2069886;28;20206;-52
2023/01/28 02:26:44;;;;;;;6.32;5.75;;;;;19.50;101700.00;;;;2077205;28;20209;-51
2023/01/28 02:27:53;;;;;;;6.00;5.50;;;;;19.50;101708.00;;;;2072930;28;20242;-51
2023/01/28 02:29:14;;;;;;;6.32;5.82;;;;;19.50;101703.00;;;;2072521;28;20697;-52
2023/01/28 02:30:18;;;;;;;6.28;5.80;;;;;19.50;101706.00;;;;2074753;28;20964;-51
2023/01/28 02:31:38;;;;;;;5.65;5.20;;;;;19.50;101704.00;;;;2069013;28;20636;-51
2023/01/28 02:32:42;;;;;;;6.20;5.70;;;;;19.50;101700.00;;;;2078341;28;20312;-51
2023/01/28 02:33:49;;;;;;;5.97;5.47;;;;;19.50;101707.00;;;;2069271;28;20218;-52
2023/01/28 02:34:51;;;;;;;6.20;5.60;;;;;19.40;101704.00;;;;2063188;28;20227;-51
2023/01/28 02:35:52;;;;;;;6.63;6.03;;;;;19.40;101707.00;;;;2067907;28;20232;-51
2023/01/28 02:37:08;;;;;;;5.38;4.88;;;;;19.40;101710.00;;;;2077376;28;20260;-51
2023/01/28 02:38:15;;;;;;;5.80;5.30;;;;;19.40;101712.00;;;;2070921;28;20214;-51
2023/01/28 02:39:19;;;;;;;6.00;5.50;;;;;19.40;101714.00;;;;2063895;28;20765;-50
2023/01/28 02:40:22;;;;;;;5.10;4.70;;;;;19.50;101702.00;;;;2065649;28;20781;-51
2023/01/28 02:41:33;;;;;;;5.43;5.03;;;;;19.40;101704.00;;;;2069831;28;20317;-51
2023/01/28 02:42:34;;;;;;;5.60;5.10;;;;;19.40;101697.00;;;;2076217;28;20225;-51
2023/01/28 02:43:42;;;;;;;5.80;5.40;;;;;19.40;101715.00;;;;2076589;28;20312;-51
2023/01/28 02:44:42;;;;;;;5.22;4.82;;;;;19.40;101708.00;;;;2085195;28;20220;-51
2023/01/28 02:48:21;;;;;;;5.30;4.90;;;;;19.40;101714.00;;;;2080319;28;20220;-52
2023/01/28 02:49:34;;;;;;;5.22;4.82;;;;;19.40;101717.00;;;;2077397;28;20612;-52
2023/01/28 02:50:40;;;;;;;5.00;4.60;;;;;19.40;101713.00;;;;2078974;28;20392;-51
2023/01/28 02:51:49;;;;;;;4.82;4.47;;;;;19.40;101716.00;;;;2079202;28;20225;-51
2023/01/28 02:54:22;;;;;;;4.65;4.30;;;;;19.40;101713.00;;;;2087324;28;20220;-51
2023/01/28 02:55:44;;;;;;;5.20;4.78;;;;;19.40;101709.00;;;;2086816;28;20212;-51
2023/01/28 02:56:59;;;;;;;4.15;3.75;;;;;19.40;101716.00;;;;2087205;28;20220;-51
2023/01/28 02:58:22;;;;;;;4.75;4.35;;;;;19.40;101716.00;;;;2086211;28;20232;-52
2023/01/28 02:59:30;;;;;;;4.50;4.18;;;;;19.40;101719.00;;;;2083387;28;20311;-52
2023/01/28 03:00:44;;;;;;;4.68;4.28;;;;;19.40;101714.00;;;;2087569;28;20271;-51
2023/01/28 03:01:44;;;;;;;4.35;4.03;;;;;19.40;101705.00;;;;2086988;28;20215;-51
2023/01/28 03:02:59;;;;;;;4.80;4.40;;;;;19.40;101712.00;;;;2086791;28;20600;-51
2023/01/28 03:04:07;;;;;;;4.63;4.20;;;;;19.40;101712.00;;;;2087300;28;20303;-52
2023/01/28 03:05:21;;;;;;;4.80;4.40;;;;;19.30;101707.00;;;;2078547;28;20262;-52
2023/01/28 03:06:24;;;;;;;4.45;4.10;;;;;19.30;101715.00;;;;2087206;28;20219;-51
2023/01/28 03:07:25;;;;;;;4.32;4.00;;;;;19.30;101712.00;;;;2086452;28;20679;-51
2023/01/28 03:09:45;;;;;;;4.30;4.00;;;;;19.30;101710.00;;;;2075599;28;20774;-51
2023/01/28 03:36:49;;;;;;;4.07;3.75;;;;;19.20;101698.00;;;;2083810;28;20790;-52
2023/01/28 03:37:49;;;;;;;3.70;3.50;;;;;19.30;101696.00;;;;2086446;28;20243;-51
2023/01/28 03:38:50;;;;;;;3.80;3.50;;;;;19.30;101699.00;;;;2086135;28;20217;-52
2023/01/28 03:39:50;;;;;;;4.17;3.80;;;;;19.20;101695.00;;;;2086654;28;20221;-51
2023/01/28 03:40:51;;;;;;;3.37;3.13;;;;;19.20;101699.00;;;;2087167;28;20232;-51
2023/01/28 03:42:00;;;;;;;4.10;3.70;;;;;19.20;101700.00;;;;2087319;28;20343;-51
2023/01/28 03:43:00;;;;;;;3.90;3.60;;;;;19.20;101699.00;;;;2095056;28;20219;-51
2023/01/28 03:45:20;;;;;;;3.58;3.33;;;;;19.20;101706.00;;;;2087178;28;20212;-51
2023/01/28 03:46:20;;;;;;;4.30;3.20;;;;;19.20;101701.00;;;;2087726;28;20208;-51
2023/01/28 03:47:22;;;;;;;3.90;3.60;;;;;19.20;101703.00;;;;2087739;28;20236;-51
2023/01/28 03:48:24;;;;;;;4.07;3.72;;;;;19.20;101708.00;;;;2086373;28;20357;-51
2023/01/28 03:49:24;;;;;;;3.83;3.53;;;;;19.20;101702.00;;;;2078919;28;20217;-51
2023/01/28 03:50:25;;;;;;;3.40;3.10;;;;;19.20;101708.00;;;;2079324;28;20217;-51
2023/01/28 03:51:25;;;;;;;4.10;3.70;;;;;19.10;101710.00;;;;2080472;28;20214;-51
2023/01/28 03:52:30;;;;;;;4.20;3.23;;;;;19.20;101712.00;;;;2086782;28;20723;-51
2023/01/28 03:53:31;;;;;;;3.72;3.33;;;;;19.20;101707.00;;;;2094695;28;20208;-52
2023/01/28 03:54:31;;;;;;;3.20;3.00;;;;;19.20;101704.00;;;;2093940;28;20742;-51
2023/01/28 03:55:31;;;;;;;3.17;2.97;;;;;19.20;101703.00;;;;2087584;28;20220;-52
2023/01/28 03:56:36;;;;;;;4.13;3.20;;;;;19.20;101708.00;;;;2087537;28;20240;-52
2023/01/28 03:57:36;;;;;;;3.58;3.28;;;;;19.20;101708.00;;;;2087676;28;20216;-51
2023/01/28 03:58:51;;;;;;;3.50;3.20;;;;;19.20;101705.00;;;;2086783;28;20752;-51
2023/01/28 03:59:52;;;;;;;3.47;3.28;;;;;19.20;101711.00;;;;2086967;28;20212;-51
2023/01/28 04:00:52;;;;;;;3.60;3.30;;;;;19.20;101709.00;;;;2079198;28;20216;-51
2023/01/28 04:01:54;;;;;;;3.50;3.20;;;;;19.20;101706.00;;;;2077921;28;20678;-50
2023/01/28 04:02:54;;;;;;;3.67;3.30;;;;;19.20;101706.00;;;;2078242;28;20213;-49
2023/01/28 04:03:54;;;;;;;3.47;3.17;;;;;19.20;101709.00;;;;2078033;28;20856;-50
2023/01/28 04:04:57;;;;;;;3.70;3.40;;;;;19.20;101709.00;;;;2078856;28;20609;-50
2023/01/28 04:06:02;;;;;;;3.60;3.30;;;;;19.20;101716.00;;;;2086437;28;20205;-49
2023/01/28 04:07:02;;;;;;;3.55;3.25;;;;;19.20;101708.00;;;;2085739;28;20216;-50
2023/01/28 04:08:03;;;;;;;3.70;3.40;;;;;19.10;101713.00;;;;2078363;28;20209;-49
2023/01/28 04:09:04;;;;;;;3.70;3.40;;;;;19.10;101722.00;;;;2079260;28;20214;-51
2023/01/28 04:10:07;;;;;;;3.50;3.28;;;;;19.20;101717.00;;;;2086610;28;20251;-50
2023/01/28 04:11:18;;;;;;;3.75;3.40;;;;;19.10;101714.00;;;;2086099;28;20213;-50
2023/01/28 04:12:19;;;;;;;3.70;3.40;;;;;19.10;101717.00;;;;2079086;28;20574;-50
2023/01/28 04:13:19;;;;;;;3.67;2.97;;;;;19.10;101721.00;;;;2087540;28;20247;-51
2023/01/28 04:14:19;;;;;;;3.80;3.50;;;;;19.10;101722.00;;;;2087035;28;20278;-50
2023/01/28 04:15:20;;;;;;;3.10;2.90;;;;;19.10;101721.00;;;;2082953;28;20303;-51
2023/01/28 04:16:20;;;;;;;3.10;2.90;;;;;19.10;101720.00;;;;2083456;28;20221;-51
2023/01/28 04:17:20;;;;;;;3.60;3.30;;;;;19.10;101727.00;;;;2087561;28;20213;-51
2023/01/28 04:18:26;;;;;;;4.10;3.77;;;;;19.10;101722.00;;;;2085035;28;20216;-52
2023/01/28 04:19:26;;;;;;;4.38;3.97;;;;;19.10;101727.00;;;;2079134;28;20272;-52
2023/01/28 04:20:26;;;;;;;3.77;3.47;;;;;19.10;101725.00;;;;2079514;28;20213;-51
2023/01/28 04:21:27;;;;;;;3.77;3.47;;;;;19.10;101725.00;;;;2079043;28;20292;-52
2023/01/28 04:22:27;;;;;;;3.10;2.90;;;;;19.10;101725.00;;;;2079374;28;20252;-52
2023/01/28 04:23:28;;;;;;;3.33;3.13;;;;;19.10;101735.00;;;;2079336;28;20217;-52
2023/01/28 04:24:28;;;;;;;2.90;2.70;;;;;19.10;101730.00;;;;2086638;28;20637;-52
2023/01/28 04:25:29;;;;;;;4.10;3.40;;;;;19.10;101723.00;;;;2086296;28;20227;-53
2023/01/28 04:26:30;;;;;;;3.60;3.30;;;;;19.10;101722.00;;;;2079015;28;20222;-52
2023/01/28 04:27:30;;;;;;;3.70;3.40;;;;;19.10;101727.00;;;;2080563;28;20210;-52
2023/01/28 04:28:30;;;;;;;3.50;3.20;;;;;19.10;101730.00;;;;2084497;28;20216;-52
2023/01/28 04:29:31;;;;;;;3.70;3.40;;;;;19.10;101729.00;;;;2079258;28;20237;-52
2023/01/28 04:30:31;;;;;;;3.30;3.00;;;;;19.10;101727.00;;;;2081813;28;20206;-51
2023/01/28 04:31:31;;;;;;;3.10;2.90;;;;;19.10;101731.00;;;;2080219;28;20201;-52
2023/01/28 04:32:32;;;;;;;3.60;3.40;;;;;19.10;101728.00;;;;2078585;28;20209;-52
2023/01/28 04:33:32;;;;;;;3.30;3.10;;;;;19.10;101730.00;;;;2086822;28;20209;-52
2023/01/28 04:34:32;;;;;;;6.17;3.60;;;;;19.10;101730.00;;;;2087106;28;20235;-52
2023/01/28 04:35:33;;;;;;;3.50;3.30;;;;;19.10;101733.00;;;;2086658;28;20217;-52
2023/01/28 04:36:33;;;;;;;3.83;3.53;;;;;19.10;101737.00;;;;2079174;28;20268;-52
2023/01/28 04:37:33;;;;;;;2.97;2.77;;;;;19.10;101735.00;;;;2082977;28;20216;-52
2023/01/28 04:38:34;;;;;;;3.30;3.10;;;;;19.10;101729.00;;;;2077969;28;20232;-52
2023/01/28 04:39:34;;;;;;;3.83;3.40;;;;;19.10;101728.00;;;;2078816;28;20297;-52
2023/01/28 04:40:34;;;;;;;3.83;3.43;;;;;19.10;101729.00;;;;2081422;28;20221;-52
2023/01/28 04:41:35;;;;;;;3.60;3.30;;;;;19.10;101731.00;;;;2094689;28;20220;-52
2023/01/28 04:42:35;;;;;;;4.17;3.73;;;;;19.10;101733.00;;;;2094705;28;20224;-52
2023/01/28 04:43:35;;;;;;;3.50;3.30;;;;;19.10;101735.00;;;;2072810;28;20241;-52
2023/01/28 04:44:36;;;;;;;3.10;2.90;;;;;19.10;101729.00;;;;2078999;28;20240;-52
2023/01/28 04:45:36;;;;;;;3.73;3.43;;;;;19.10;101730.00;;;;2078959;28;20228;-52
2023/01/28 04:46:36;;;;;;;3.23;3.00;;;;;19.10;101723.00;;;;2079003;28;20209;-52
2023/01/28 04:47:37;;;;;;;3.20;3.00;;;;;19.10;101727.00;;;;2078546;28;20643;-52
2023/01/28 04:48:37;;;;;;;3.20;2.90;;;;;19.10;101726.00;;;;2077790;28;20713;-52
2023/01/28 04:49:37;;;;;;;3.30;3.00;;;;;19.10;101724.00;;;;2078678;28;20209;-52
2023/01/28 04:50:38;;;;;;;3.20;2.90;;;;;19.10;101729.00;;;;2078996;28;20356;-52
2023/01/28 04:51:38;;;;;;;3.40;3.10;;;;;19.10;101730.00;;;;2078855;28;20236;-52
2023/01/28 04:52:38;;;;;;;3.00;2.80;;;;;19.10;101723.00;;;;2079041;28;20220;-53
2023/01/28 04:53:39;;;;;;;4.33;3.10;;;;;19.10;101724.00;;;;2078910;28;20218;-52
2023/01/28 04:54:39;;;;;;;3.13;2.93;;;;;19.10;101727.00;;;;2081729;28;20216;-52
2023/01/28 04:55:40;;;;;;;3.33;3.13;;;;;19.00;101718.00;;;;2086245;28;20224;-52
2023/01/28 04:56:40;;;;;;;2.73;2.53;;;;;19.00;101722.00;;;;2086930;28;20463;-53
2023/01/28 04:57:40;;;;;;;3.63;3.33;;;;;19.00;101727.00;;;;2087030;28;20213;-53
2023/01/28 04:58:41;;;;;;;3.10;2.80;;;;;19.00;101725.00;;;;2086196;28;20221;-52
2023/01/28 04:59:41;;;;;;;3.20;3.00;;;;;19.00;101728.00;;;;2086523;28;20212;-52
2023/01/28 05:00:41;;;;;;;3.10;2.90;;;;;19.00;101724.00;;;;2086881;28;20216;-52
2023/01/28 05:01:42;;;;;;;2.97;2.77;;;;;19.00;101719.00;;;;2086771;28;20240;-52
2023/01/28 05:02:42;;;;;;;2.50;2.30;;;;;19.00;101724.00;;;;2087057;28;20301;-51
2023/01/28 05:03:42;;;;;;;3.20;3.00;;;;;19.00;101718.00;;;;2086952;28;20254;-52
2023/01/28 05:04:43;;;;;;;2.60;2.40;;;;;19.00;101708.00;;;;2087018;28;20221;-52
2023/01/28 05:05:43;;;;;;;3.70;3.20;;;;;19.00;101722.00;;;;2086815;28;20224;-52
2023/01/28 05:06:43;;;;;;;3.53;3.23;;;;;19.00;101720.00;;;;2086793;28;20294;-52
2023/01/28 05:07:49;;;;;;;2.60;2.40;;;;;19.10;101714.00;;;;2086723;28;20216;-52
2023/01/28 05:08:49;;;;;;;3.08;2.85;;;;;19.00;101720.00;;;;2086117;28;20213;-52
2023/01/28 05:09:49;;;;;;;3.47;2.93;;;;;19.00;101719.00;;;;2094305;28;20229;-53
2023/01/28 05:10:49;;;;;;;2.80;2.60;;;;;19.00;101726.00;;;;2093096;28;20219;-53
2023/01/28 05:11:50;;;;;;;3.07;2.87;;;;;19.00;101716.00;;;;2085011;28;20250;-52
2023/01/28 05:12:50;;;;;;;3.13;2.83;;;;;19.00;101719.00;;;;2086295;28;20205;-52
2023/01/28 05:13:50;;;;;;;3.17;2.87;;;;;19.00;101719.00;;;;2086115;28;20258;-52
2023/01/28 05:14:51;;;;;;;2.90;2.70;;;;;19.00;101723.00;;;;2086141;28;20251;-52
2023/01/28 05:15:52;;;;;;;3.23;3.03;;;;;19.00;101724.00;;;;2078468;28;20284;-52
2023/01/28 05:16:52;;;;;;;3.13;2.88;;;;;19.00;101725.00;;;;2082344;28;20216;-52
2023/01/28 05:17:54;;;;;;;2.87;2.67;;;;;19.00;101719.00;;;;2085751;28;20209;-52
2023/01/28 05:18:54;;;;;;;2.67;2.47;;;;;19.00;101722.00;;;;2085522;28;20681;-52
2023/01/28 05:19:55;;;;;;;2.80;2.60;;;;;19.00;101722.00;;;;2086204;28;20228;-52
2023/01/28 05:20:55;;;;;;;3.13;2.93;;;;;19.00;101719.00;;;;2085887;28;20208;-53
2023/01/28 05:21:55;;;;;;;3.00;2.80;;;;;19.00;101711.00;;;;2086158;28;20243;-52
2023/01/28 05:22:56;;;;;;;3.23;3.03;;;;;18.90;101716.00;;;;2080130;28;20692;-52
2023/01/28 05:23:56;;;;;;;2.70;2.50;;;;;18.90;101718.00;;;;2078323;28;20633;-52
2023/01/28 05:24:56;;;;;;;2.83;2.63;;;;;18.90;101716.00;;;;2077372;28;20599;-56
2023/01/28 05:25:57;;;;;;;2.70;2.50;;;;;19.00;101722.00;;;;2078476;28;20213;-56
2023/01/28 05:26:57;;;;;;;3.00;2.77;;;;;19.00;101716.00;;;;2078847;28;20259;-53
2023/01/28 05:27:57;;;;;;;2.63;2.43;;;;;19.00;101726.00;;;;2077392;28;20233;-53
2023/01/28 05:28:58;;;;;;;2.80;2.60;;;;;19.00;101727.00;;;;2078670;28;20222;-54
2023/01/28 05:29:58;;;;;;;3.03;2.80;;;;;19.00;101719.00;;;;2078576;28;20225;-53
2023/01/28 05:31:05;;;;;;;2.83;2.63;;;;;19.00;101724.00;;;;2078685;28;20245;-53
2023/01/28 05:32:06;;;;;;;2.70;2.50;;;;;18.90;101735.00;;;;2077583;28;20221;-52
2023/01/28 05:33:06;;;;;;;3.30;3.00;;;;;19.00;101736.00;;;;2085798;28;20240;-52
2023/01/28 05:34:07;;;;;;;2.83;2.63;;;;;18.90;101728.00;;;;2086924;28;20212;-52
2023/01/28 05:35:08;;;;;;;2.93;2.73;;;;;18.90;101738.00;;;;2086831;28;20208;-52
2023/01/28 05:36:08;;;;;;;3.00;2.80;;;;;19.00;101736.00;;;;2086564;28;21151;-52
2023/01/28 05:37:08;;;;;;;3.00;2.80;;;;;19.00;101735.00;;;;2086316;28;20216;-52
2023/01/28 05:38:09;;;;;;;2.80;2.60;;;;;19.00;101735.00;;;;2085617;28;20220;-52
2023/01/28 05:39:09;;;;;;;3.10;2.90;;;;;18.90;101730.00;;;;2086585;28;20209;-52
2023/01/28 05:40:10;;;;;;;2.97;2.77;;;;;18.90;101731.00;;;;2086773;28;20209;-53
2023/01/28 05:41:10;;;;;;;3.23;2.93;;;;;18.90;101729.00;;;;2086649;28;20581;-51
2023/01/28 05:42:11;;;;;;;3.07;2.87;;;;;18.90;101725.00;;;;2086677;28;20315;-52